AU-0109 weather

Unknown Farm Strip
Western Australia, Australia

Public forecast

Using degrees Celsius for public forecast. Weather courtesy of forecast.io.

Closest aviation weather report (METAR) to Unknown Farm Strip

Closest report is Perth Jandakot Airport, 60.5 nm (112.0 km) N. Retrieved 2019/12/13 07:30 UTC (41 seconds ago):

YPJT 130730Z AUTO 25016KT 9999 // NCD 38/05 Q1013 RF000/0000

Closest aviation forecast (TAF) to Unknown Farm Strip

Closest forecast is Perth Jandakot Airport, 60.5 nm (112.0 km) N. Retrieved 2019/12/13 06:00 UTC (2 hours ago):

TAF YPJT 130436Z 1306/1400 20014KT CAVOK FM131400 15010KT CAVOK FM131700 10008KT CAVOK